Time;durP1;ratioP1;P1;durP2;ratioP2;P2;SDS_P1;SDS_P2;PMS_P1;PMS_P2;Temp;Humidity;BMP_temperature;BMP_pressure;BME280_temperature;BME280_humidity;BME280_pressure;Samples;Min_cycle;Max_cycle;Signal;HPM_P1;HPM_P2
2022/04/30 00:01:40;;;;;;;3.27;3.03;;;8.00;99.90;;;;;;5224409;28;20195;-76
2022/04/30 00:04:11;;;;;;;0.73;0.73;;;8.00;99.90;;;;;;5232204;28;20036;-76
2022/04/30 00:06:43;;;;;;;1.00;1.00;;;7.90;99.90;;;;;;5227548;28;20450;-75
2022/04/30 00:09:14;;;;;;;0.70;0.70;;;7.80;99.90;;;;;;5263736;28;20095;-76
2022/04/30 00:11:45;;;;;;;0.63;0.63;;;7.90;99.90;;;;;;5256898;28;20025;-76
2022/04/30 00:14:16;;;;;;;0.50;0.50;;;7.90;99.90;;;;;;5255024;28;20052;-77
2022/04/30 00:16:48;;;;;;;1.00;1.00;;;7.70;99.90;;;;;;5256417;28;20017;-76
2022/04/30 00:19:21;;;;;;;0.80;0.80;;;7.60;99.90;;;;;;5276554;28;20015;-76
2022/04/30 00:21:52;;;;;;;0.75;0.75;;;7.50;99.90;;;;;;5257574;28;20012;-76
2022/04/30 00:24:26;;;;;;;0.80;0.80;;;7.40;99.90;;;;;;5248059;28;20028;-77
2022/04/30 00:26:59;;;;;;;1.23;1.23;;;7.20;99.90;;;;;;5255572;28;20135;-75
2022/04/30 00:29:32;;;;;;;0.68;0.68;;;7.20;99.90;;;;;;5252683;28;20036;-78
2022/04/30 00:32:06;;;;;;;0.60;0.60;;;7.20;99.90;;;;;;5254614;28;20031;-75
2022/04/30 00:34:43;;;;;;;1.20;0.93;;;7.20;99.90;;;;;;5220954;28;20347;-77
2022/04/30 00:37:14;;;;;;;0.45;0.45;;;7.30;99.90;;;;;;5251844;28;20219;-78
2022/04/30 00:39:50;;;;;;;0.60;0.60;;;7.20;99.90;;;;;;5206342;28;20037;-76
2022/04/30 00:42:21;;;;;;;1.55;1.55;;;7.10;99.90;;;;;;5223164;28;20032;-77
2022/04/30 00:44:52;;;;;;;0.73;0.73;;;7.10;99.90;;;;;;5239712;28;20023;-78
2022/04/30 00:47:26;;;;;;;0.70;0.70;;;7.10;99.90;;;;;;5223506;28;20027;-78
2022/04/30 00:50:00;;;;;;;0.80;0.80;;;7.20;99.90;;;;;;5240923;28;20035;-77
2022/04/30 00:52:32;;;;;;;0.85;0.85;;;7.20;99.90;;;;;;5241229;28;20429;-76
2022/04/30 00:55:06;;;;;;;0.65;0.65;;;7.20;99.90;;;;;;5229275;28;20323;-77
2022/04/30 00:57:40;;;;;;;0.95;0.95;;;7.30;99.90;;;;;;5212271;28;20227;-78
2022/04/30 01:00:12;;;;;;;1.02;1.02;;;7.30;99.90;;;;;;5223028;28;20032;-78
2022/04/30 01:02:46;;;;;;;1.30;1.20;;;7.30;99.90;;;;;;5237655;28;20338;-77
2022/04/30 01:05:20;;;;;;;0.70;0.70;;;7.20;99.90;;;;;;5194658;28;20056;-77
2022/04/30 01:07:52;;;;;;;2.65;2.47;;;7.20;99.90;;;;;;5220064;28;20039;-75
2022/04/30 01:10:26;;;;;;;0.90;0.90;;;7.10;99.90;;;;;;5186221;28;20029;-78
2022/04/30 01:12:57;;;;;;;0.68;0.68;;;7.20;99.90;;;;;;5236994;28;20043;-77
2022/04/30 01:15:28;;;;;;;0.90;0.90;;;7.30;99.90;;;;;;5240451;28;20054;-76
2022/04/30 01:18:02;;;;;;;1.30;1.25;;;7.30;99.90;;;;;;5240635;28;20206;-77
2022/04/30 01:20:37;;;;;;;0.77;0.77;;;7.30;99.90;;;;;;5241582;28;20338;-76
2022/04/30 01:23:10;;;;;;;1.00;1.00;;;7.30;99.90;;;;;;5240178;28;20032;-77
2022/04/30 01:25:42;;;;;;;1.70;1.63;;;7.30;99.90;;;;;;5240408;28;20032;-75
2022/04/30 01:28:14;;;;;;;0.40;0.40;;;7.30;99.90;;;;;;5238977;28;20036;-77
2022/04/30 01:30:48;;;;;;;0.60;0.60;;;7.20;99.90;;;;;;5222211;28;20250;-77
2022/04/30 01:39:04;;;;;;;0.40;0.40;;;7.00;99.90;;;;;;5241301;28;20241;-77
2022/04/30 01:41:38;;;;;;;0.68;0.68;;;6.90;99.90;;;;;;5241405;28;20330;-77
2022/04/30 01:44:12;;;;;;;1.92;1.83;;;6.90;99.90;;;;;;5214847;28;20036;-77
2022/04/30 01:46:45;;;;;;;0.82;0.82;;;6.90;99.90;;;;;;5260272;28;20305;-76
2022/04/30 01:49:19;;;;;;;0.50;0.50;;;6.90;99.90;;;;;;5243102;28;20062;-77
2022/04/30 01:51:54;;;;;;;0.60;0.60;;;6.90;99.90;;;;;;5222515;28;20034;-76
2022/04/30 01:54:27;;;;;;;0.60;0.60;;;7.00;99.90;;;;;;5241230;28;20040;-78
2022/04/30 01:56:58;;;;;;;1.23;1.23;;;6.90;99.90;;;;;;5205920;28;20067;-77
2022/04/30 01:59:32;;;;;;;0.75;0.75;;;6.90;99.90;;;;;;5219550;28;20037;-76
2022/04/30 02:02:05;;;;;;;0.93;0.93;;;7.00;99.90;;;;;;5225104;28;20036;-75
2022/04/30 02:04:40;;;;;;;0.80;0.80;;;7.00;99.90;;;;;;5212648;28;20343;-76
2022/04/30 02:07:14;;;;;;;0.90;0.90;;;7.10;99.90;;;;;;5239618;28;20037;-77
2022/04/30 02:09:47;;;;;;;1.30;1.30;;;7.10;99.90;;;;;;5242131;28;20016;-78
2022/04/30 02:12:19;;;;;;;0.70;0.70;;;7.20;99.90;;;;;;5247285;28;20026;-76
2022/04/30 02:14:57;;;;;;;0.82;0.82;;;7.30;99.90;;;;;;5227237;28;20041;-76
2022/04/30 02:17:40;;;;;;;0.93;0.93;;;7.20;99.90;;;;;;5244602;28;20297;-78
2022/04/30 02:20:26;;;;;;;1.45;1.40;;;7.20;99.90;;;;;;5244601;28;20020;-77
2022/04/30 02:23:01;;;;;;;0.70;0.70;;;7.10;99.90;;;;;;5245852;28;20016;-77
2022/04/30 02:25:32;;;;;;;0.77;0.77;;;7.00;99.90;;;;;;5244482;28;20346;-78
2022/04/30 02:28:08;;;;;;;1.02;1.02;;;6.90;99.90;;;;;;5244558;28;20037;-78
2022/04/30 02:30:39;;;;;;;0.50;0.50;;;6.90;99.90;;;;;;5244195;28;20021;-78
2022/04/30 02:33:16;;;;;;;0.60;0.60;;;6.80;99.90;;;;;;5244267;28;20364;-78
2022/04/30 02:35:50;;;;;;;1.10;1.10;;;6.90;99.90;;;;;;5244856;28;20034;-78
2022/04/30 02:38:26;;;;;;;0.90;0.90;;;6.80;99.90;;;;;;5252207;28;20016;-78
2022/04/30 02:40:58;;;;;;;0.88;0.88;;;6.80;99.90;;;;;;5266268;28;20042;-79
2022/04/30 02:43:29;;;;;;;0.95;0.95;;;6.80;99.90;;;;;;5249751;28;20253;-77
2022/04/30 02:46:03;;;;;;;0.65;0.65;;;6.80;99.90;;;;;;5227564;28;20040;-77
2022/04/30 02:48:34;;;;;;;0.90;0.90;;;6.80;99.90;;;;;;5243872;28;20034;-78
2022/04/30 02:51:05;;;;;;;0.60;0.60;;;6.90;99.90;;;;;;5243493;28;20062;-78
2022/04/30 02:53:37;;;;;;;0.90;0.90;;;6.90;99.90;;;;;;5242449;28;20047;-77
2022/04/30 02:56:12;;;;;;;1.10;1.10;;;6.80;99.90;;;;;;5242593;28;20028;-78
2022/04/30 03:01:35;;;;;;;1.17;1.15;;;6.90;99.90;;;;;;5243047;28;19918;-78
2022/04/30 03:04:07;;;;;;;1.83;1.40;;;6.90;99.90;;;;;;5223373;28;20975;-77
2022/04/30 03:06:38;;;;;;;2.65;2.45;;;6.90;99.90;;;;;;5237175;28;20063;-76
2022/04/30 03:09:09;;;;;;;0.88;0.88;;;7.00;99.90;;;;;;5225012;28;20054;-76
2022/04/30 03:11:42;;;;;;;0.50;0.50;;;7.10;99.90;;;;;;5256427;28;20024;-78
2022/04/30 03:14:16;;;;;;;1.27;1.17;;;7.10;99.90;;;;;;5241845;28;20277;-78
2022/04/30 03:22:27;;;;;;;0.70;0.70;;;7.10;99.90;;;;;;5239650;28;20043;-79
2022/04/30 03:24:58;;;;;;;0.45;0.45;;;7.10;99.90;;;;;;5242596;28;20269;-79
2022/04/30 03:27:29;;;;;;;0.60;0.60;;;7.10;99.90;;;;;;5252543;28;20042;-77
2022/04/30 03:30:02;;;;;;;0.77;0.77;;;7.10;99.90;;;;;;5227143;28;20036;-78
2022/04/30 03:32:35;;;;;;;0.82;0.82;;;7.00;99.90;;;;;;5257326;28;20100;-78
2022/04/30 03:35:07;;;;;;;0.80;0.80;;;6.90;99.90;;;;;;5224586;28;20036;-78
2022/04/30 03:37:38;;;;;;;1.63;1.52;;;6.80;99.90;;;;;;5242884;28;20221;-77
2022/04/30 03:40:15;;;;;;;1.15;1.15;;;6.70;99.90;;;;;;5241855;28;20032;-79
2022/04/30 03:42:46;;;;;;;1.35;1.25;;;6.70;99.90;;;;;;5240969;28;20043;-77
2022/04/30 03:45:20;;;;;;;0.57;0.57;;;6.50;99.90;;;;;;5242350;28;20363;-77
2022/04/30 03:47:51;;;;;;;0.95;0.95;;;6.40;99.90;;;;;;5241709;28;20020;-77
2022/04/30 03:50:22;;;;;;;0.82;0.82;;;6.40;99.90;;;;;;5240914;28;20040;-77
2022/04/30 03:52:53;;;;;;;2.72;1.80;;;6.30;99.90;;;;;;5222588;28;20037;-78
2022/04/30 03:55:27;;;;;;;1.10;1.10;;;6.20;99.90;;;;;;5241578;28;20024;-78
2022/04/30 03:58:01;;;;;;;1.33;1.33;;;6.10;99.90;;;;;;5227316;28;20536;-79
2022/04/30 04:00:38;;;;;;;0.98;0.98;;;6.10;99.90;;;;;;5241289;28;20252;-76
2022/04/30 04:03:10;;;;;;;1.02;1.02;;;6.10;99.90;;;;;;5241076;28;20033;-80
2022/04/30 04:05:41;;;;;;;0.47;0.47;;;6.10;99.90;;;;;;5209470;28;20041;-78
2022/04/30 04:08:14;;;;;;;0.60;0.60;;;6.10;99.90;;;;;;5237451;28;20036;-79
2022/04/30 04:10:54;;;;;;;0.50;0.50;;;6.20;99.90;;;;;;5223507;28;20039;-79
2022/04/30 04:19:06;;;;;;;0.75;0.75;;;6.50;99.90;;;;;;5221644;28;20312;-78
2022/04/30 04:21:37;;;;;;;0.95;0.95;;;6.60;99.90;;;;;;5230204;28;20340;-75
2022/04/30 04:27:06;;;;;;;1.27;1.27;;;6.60;99.90;;;;;;5241157;28;20328;-76
2022/04/30 04:29:39;;;;;;;0.75;0.75;;;6.70;99.90;;;;;;5242023;28;20283;-77
2022/04/30 04:32:11;;;;;;;1.00;1.00;;;6.70;99.90;;;;;;5223310;28;20035;-76
2022/04/30 04:34:44;;;;;;;0.50;0.50;;;6.70;99.90;;;;;;5241983;28;20052;-77
2022/04/30 04:37:16;;;;;;;0.77;0.77;;;6.80;99.90;;;;;;5241441;28;20028;-76
2022/04/30 04:39:52;;;;;;;0.95;0.95;;;6.80;99.90;;;;;;5223992;28;20052;-77
2022/04/30 04:42:23;;;;;;;0.50;0.50;;;6.90;99.90;;;;;;5219148;28;20045;-78
2022/04/30 04:44:54;;;;;;;1.13;1.10;;;6.80;99.90;;;;;;5234277;28;20032;-78
2022/04/30 04:47:34;;;;;;;0.68;0.68;;;6.80;99.90;;;;;;5241942;28;20028;-78
2022/04/30 04:50:09;;;;;;;0.70;0.70;;;6.80;99.90;;;;;;5223465;28;20024;-77
2022/04/30 04:52:44;;;;;;;1.23;1.23;;;6.90;99.90;;;;;;5242728;28;20077;-78
2022/04/30 04:55:15;;;;;;;;;;;7.00;99.90;;;;;;5240014;28;20043;-77
2022/04/30 04:57:53;;;;;;;0.90;0.90;;;7.10;99.90;;;;;;5212400;28;20236;-76
2022/04/30 05:00:27;;;;;;;0.88;0.88;;;7.20;99.90;;;;;;5240672;28;20388;-77
2022/04/30 05:03:00;;;;;;;0.87;0.87;;;7.20;99.90;;;;;;5241572;28;20035;-78
2022/04/30 05:05:32;;;;;;;2.05;1.13;;;7.30;99.90;;;;;;5229145;28;20519;-80
2022/04/30 05:08:05;;;;;;;0.63;0.63;;;7.50;99.90;;;;;;5240132;28;20023;-77
2022/04/30 05:10:40;;;;;;;0.60;0.60;;;7.60;99.90;;;;;;5243186;28;20039;-76
2022/04/30 05:13:13;;;;;;;1.00;1.00;;;7.80;99.90;;;;;;5241163;28;20020;-77
2022/04/30 05:15:45;;;;;;;1.42;1.42;;;7.90;99.90;;;;;;5240571;28;20039;-77
2022/04/30 05:18:16;;;;;;;0.80;0.80;;;8.10;99.90;;;;;;5221759;28;20304;-77
2022/04/30 05:20:47;;;;;;;0.55;0.55;;;8.30;99.90;;;;;;5241616;28;20029;-77
2022/04/30 05:23:22;;;;;;;0.68;0.68;;;8.40;99.90;;;;;;5225723;28;20380;-77
2022/04/30 05:25:54;;;;;;;0.90;0.90;;;8.50;99.90;;;;;;5245053;28;20027;-78
2022/04/30 05:28:27;;;;;;;1.70;1.60;;;8.60;99.90;;;;;;5211658;28;20043;-78
2022/04/30 05:31:03;;;;;;;1.25;1.25;;;8.70;99.90;;;;;;5227580;28;20031;-79
2022/04/30 05:33:37;;;;;;;1.08;1.08;;;8.80;99.90;;;;;;5245790;28;20032;-78
2022/04/30 05:36:11;;;;;;;1.08;1.08;;;9.00;99.90;;;;;;5222713;28;20043;-78
2022/04/30 05:38:43;;;;;;;1.00;1.00;;;9.10;99.90;;;;;;5221461;28;20327;-77
2022/04/30 05:41:15;;;;;;;0.80;0.80;;;9.20;99.90;;;;;;5243733;28;20024;-78
2022/04/30 05:43:46;;;;;;;0.65;0.65;;;9.40;99.90;;;;;;5243870;28;20249;-78
2022/04/30 05:46:17;;;;;;;1.15;1.15;;;9.60;99.90;;;;;;5248247;28;20046;-78
2022/04/30 05:48:48;;;;;;;1.35;1.30;;;9.70;99.90;;;;;;5230440;28;20028;-77
2022/04/30 05:51:22;;;;;;;0.70;0.70;;;9.80;99.90;;;;;;5229795;28;20548;-76
2022/04/30 05:53:57;;;;;;;1.10;1.10;;;9.90;99.90;;;;;;5246394;28;20032;-79
2022/04/30 05:56:35;;;;;;;1.15;1.15;;;10.20;99.90;;;;;;5244449;28;20032;-77
2022/04/30 05:59:08;;;;;;;0.90;0.90;;;10.40;99.90;;;;;;5228530;28;20028;-76
2022/04/30 06:01:42;;;;;;;2.15;2.05;;;10.70;99.90;;;;;;5254566;28;20029;-75
2022/04/30 06:04:16;;;;;;;2.47;2.38;;;10.90;99.90;;;;;;5248332;28;20040;-79
2022/04/30 06:06:50;;;;;;;0.88;0.88;;;11.20;99.90;;;;;;5246855;28;20151;-79
2022/04/30 06:09:21;;;;;;;1.33;1.33;;;11.50;99.90;;;;;;5234526;28;20204;-80
2022/04/30 06:11:53;;;;;;;1.23;1.23;;;11.50;99.90;;;;;;5247879;28;20012;-78
2022/04/30 06:14:25;;;;;;;0.80;0.80;;;11.80;99.90;;;;;;5237558;28;20478;-76
2022/04/30 06:16:59;;;;;;;1.90;1.67;;;12.20;99.90;;;;;;5245909;28;20024;-78
2022/04/30 06:19:33;;;;;;;1.58;1.48;;;12.90;99.90;;;;;;5240546;28;20016;-79
2022/04/30 06:22:04;;;;;;;0.68;0.68;;;13.50;99.90;;;;;;5235626;28;20356;-78
2022/04/30 06:24:35;;;;;;;0.80;0.80;;;13.40;99.90;;;;;;5243466;28;20036;-79
2022/04/30 06:27:08;;;;;;;1.02;1.02;;;14.20;99.90;;;;;;5241383;28;20021;-77
2022/04/30 06:29:41;;;;;;;1.20;1.20;;;14.50;99.90;;;;;;5240735;28;20037;-80
2022/04/30 06:32:15;;;;;;;1.63;1.52;;;14.70;99.90;;;;;;5244844;28;20035;-80
2022/04/30 06:34:49;;;;;;;1.52;1.42;;;15.30;99.90;;;;;;5226743;28;20558;-78
2022/04/30 06:37:26;;;;;;;1.25;1.25;;;15.60;99.90;;;;;;5245407;28;20038;-79
2022/04/30 06:39:57;;;;;;;0.85;0.85;;;16.10;99.90;;;;;;5237474;28;20035;-79
2022/04/30 06:42:40;;;;;;;0.90;0.90;;;16.60;99.90;;;;;;5229561;28;20027;-79
2022/04/30 06:45:17;;;;;;;0.88;0.88;;;16.90;99.90;;;;;;5240865;28;20551;-78
2022/04/30 06:47:50;;;;;;;0.80;0.80;;;17.10;99.90;;;;;;5239583;28;20043;-78
2022/04/30 06:50:24;;;;;;;2.33;1.67;;;17.40;99.90;;;;;;5251905;28;20050;-80
2022/04/30 06:58:53;;;;;;;0.70;0.70;;;17.90;99.90;;;;;;5244858;28;20385;-79
2022/04/30 07:04:17;;;;;;;2.75;1.58;;;18.40;99.90;;;;;;5229059;28;20032;-78
2022/04/30 07:06:49;;;;;;;0.70;0.70;;;18.30;99.90;;;;;;5224182;28;20044;-79
2022/04/30 07:09:20;;;;;;;1.25;1.25;;;18.40;99.90;;;;;;5230364;28;20255;-78
2022/04/30 07:11:53;;;;;;;1.27;1.00;;;18.40;99.90;;;;;;5208684;28;20223;-78
2022/04/30 07:14:24;;;;;;;0.70;0.70;;;18.60;99.90;;;;;;5229248;28;20032;-79
2022/04/30 07:16:55;;;;;;;0.90;0.90;;;18.80;99.90;;;;;;5231087;28;20028;-78
2022/04/30 07:19:27;;;;;;;0.63;0.63;;;18.80;99.90;;;;;;5227274;28;20040;-79
2022/04/30 07:22:02;;;;;;;1.02;1.02;;;18.90;99.90;;;;;;5206738;28;20043;-78
2022/04/30 07:24:35;;;;;;;1.15;1.15;;;18.80;99.90;;;;;;5230435;28;20036;-78
2022/04/30 07:27:09;;;;;;;1.48;1.38;;;18.80;99.90;;;;;;5207672;28;20938;-79
2022/04/30 07:29:41;;;;;;;0.88;0.88;;;18.80;99.90;;;;;;5227372;28;20041;-78
2022/04/30 07:32:14;;;;;;;0.80;0.80;;;19.30;99.90;;;;;;5221873;28;20358;-81
2022/04/30 07:34:46;;;;;;;1.83;1.73;;;19.30;99.90;;;;;;5244314;28;20036;-80
2022/04/30 07:37:17;;;;;;;1.30;1.20;;;19.40;99.90;;;;;;5249856;28;20052;-79
2022/04/30 07:39:53;;;;;;;2.42;1.83;;;19.90;99.90;;;;;;5228970;28;20043;-77
2022/04/30 07:42:25;;;;;;;1.13;1.13;;;20.00;99.90;;;;;;5249869;28;20024;-78
2022/04/30 07:44:59;;;;;;;1.50;1.40;;;20.00;99.90;;;;;;5227443;28;20436;-77
2022/04/30 07:47:32;;;;;;;1.63;0.90;;;20.30;99.90;;;;;;5226474;28;20040;-79
2022/04/30 07:50:07;;;;;;;1.85;1.75;;;20.40;99.90;;;;;;5224028;28;20035;-79
2022/04/30 07:52:38;;;;;;;1.55;1.45;;;20.50;99.90;;;;;;5208448;28;20036;-78
2022/04/30 07:55:13;;;;;;;0.77;0.77;;;20.50;99.90;;;;;;5245382;28;20141;-76
2022/04/30 07:57:44;;;;;;;;;;;19.70;99.90;;;;;;5242904;28;20034;-78
2022/04/30 08:00:19;;;;;;;1.42;1.38;;;19.50;99.90;;;;;;5243166;28;19924;-78
2022/04/30 08:02:50;;;;;;;1.20;1.13;;;20.00;99.90;;;;;;5226866;28;20039;-77
2022/04/30 08:05:25;;;;;;;1.70;1.60;;;20.50;99.90;;;;;;5218458;28;20032;-76
2022/04/30 08:07:56;;;;;;;1.13;1.10;;;20.40;99.90;;;;;;5240232;28;20021;-79
2022/04/30 08:10:27;;;;;;;0.57;0.57;;;20.50;99.90;;;;;;5245766;28;20279;-80
2022/04/30 08:12:59;;;;;;;1.95;1.85;;;20.50;99.90;;;;;;5231781;28;20452;-80
2022/04/30 08:15:33;;;;;;;1.02;1.02;;;18.90;99.90;;;;;;5219521;28;20039;-79
2022/04/30 08:18:10;;;;;;;0.70;0.70;;;19.20;99.90;;;;;;5247650;28;20030;-79
2022/04/30 08:20:41;;;;;;;0.70;0.70;;;19.80;99.90;;;;;;5239390;28;20331;-77
2022/04/30 08:23:16;;;;;;;0.70;0.70;;;20.10;99.90;;;;;;5223503;28;20028;-78
2022/04/30 08:25:47;;;;;;;1.23;1.20;;;20.50;99.90;;;;;;5244986;28;20023;-78
2022/04/30 08:28:19;;;;;;;1.67;1.58;;;20.80;99.90;;;;;;5241117;28;20590;-79
2022/04/30 08:30:50;;;;;;;0.90;0.90;;;21.00;99.90;;;;;;5240196;28;20028;-79
2022/04/30 08:33:21;;;;;;;0.88;0.88;;;20.10;99.90;;;;;;5223316;28;20283;-79
2022/04/30 08:35:56;;;;;;;2.00;1.70;;;20.70;99.90;;;;;;5206066;28;20050;-81
2022/04/30 08:38:27;;;;;;;;;;;21.40;99.90;;;;;;5220086;28;20059;-75
2022/04/30 08:40:58;;;;;;;0.70;0.70;;;21.60;99.90;;;;;;5203646;28;20138;-78
2022/04/30 08:43:32;;;;;;;2.05;1.85;;;21.90;99.90;;;;;;5221595;28;20331;-80
2022/04/30 08:46:03;;;;;;;1.10;1.10;;;22.20;99.90;;;;;;5224417;28;20277;-82
2022/04/30 08:48:35;;;;;;;1.65;1.55;;;22.70;99.90;;;;;;5240631;28;20021;-79
2022/04/30 08:51:09;;;;;;;0.80;0.80;;;22.70;99.90;;;;;;5215156;28;20051;-81
2022/04/30 08:53:43;;;;;;;1.10;1.10;;;22.80;99.90;;;;;;5253023;28;20040;-80
2022/04/30 08:56:20;;;;;;;;;;;22.70;99.90;;;;;;5242263;28;20029;-78
2022/04/30 08:59:04;;;;;;;0.45;0.45;;;22.70;99.90;;;;;;5239733;28;19905;-79
2022/04/30 09:01:52;;;;;;;;;;;23.10;99.90;;;;;;5203771;28;20033;-78
2022/04/30 09:04:43;;;;;;;0.75;0.75;;;22.00;99.90;;;;;;5223365;28;19904;-79
2022/04/30 09:07:19;;;;;;;0.73;0.73;;;22.70;99.90;;;;;;5231597;28;20032;-80
2022/04/30 09:10:05;;;;;;;1.77;1.65;;;22.60;99.90;;;;;;5232559;28;20038;-80
2022/04/30 09:12:43;;;;;;;2.05;1.92;;;22.40;99.90;;;;;;5232687;28;20225;-76
2022/04/30 09:15:16;;;;;;;0.50;0.50;;;22.40;99.90;;;;;;5248572;28;20451;-76
2022/04/30 09:17:58;;;;;;;1.05;1.05;;;22.90;99.90;;;;;;5249240;28;20091;-77
2022/04/30 09:20:33;;;;;;;0.52;0.52;;;21.90;99.90;;;;;;5235910;28;20042;-80
2022/04/30 09:23:04;;;;;;;0.98;0.98;;;22.40;99.90;;;;;;5252049;28;20024;-79
2022/04/30 09:25:36;;;;;;;20.02;0.98;;;22.90;99.90;;;;;;5271772;28;20020;-77
2022/04/30 09:28:10;;;;;;;12.50;1.67;;;22.90;99.90;;;;;;5255486;28;20028;-81
2022/04/30 09:30:44;;;;;;;;;;;22.40;99.90;;;;;;5251354;28;20032;-80
2022/04/30 09:33:19;;;;;;;0.88;0.88;;;22.60;99.90;;;;;;5216606;28;19904;-79
2022/04/30 09:38:40;;;;;;;0.80;0.80;;;22.80;99.90;;;;;;5229800;28;20044;-79
2022/04/30 09:41:14;;;;;;;0.90;0.88;;;22.90;99.90;;;;;;5246837;28;20030;-80
2022/04/30 09:43:48;;;;;;;1.13;1.13;;;22.90;99.90;;;;;;5231633;28;20040;-80
2022/04/30 09:46:22;;;;;;;3.05;1.65;;;23.10;99.90;;;;;;5249563;28;20028;-82
2022/04/30 09:54:40;;;;;;;1.10;1.10;;;23.60;99.90;;;;;;5227801;28;20037;-78
2022/04/30 09:57:14;;;;;;;1.20;1.20;;;23.50;99.90;;;;;;5216230;28;20038;-81
2022/04/30 09:59:53;;;;;;;1.33;1.33;;;23.50;99.90;;;;;;5230595;28;20034;-83
2022/04/30 10:02:28;;;;;;;1.27;1.17;;;23.50;99.90;;;;;;5248433;28;20046;-80
2022/04/30 10:05:01;;;;;;;1.05;1.05;;;24.00;99.90;;;;;;5227358;28;20070;-81
2022/04/30 10:07:33;;;;;;;0.80;0.80;;;22.80;99.90;;;;;;5269180;28;20038;-80
2022/04/30 10:10:28;;;;;;;0.57;0.57;;;22.20;99.90;;;;;;5252724;28;20030;-78
2022/04/30 10:13:12;;;;;;;1.23;1.13;;;22.90;99.90;;;;;;5229929;28;20049;-79
2022/04/30 10:15:52;;;;;;;0.73;0.73;;;23.80;99.90;;;;;;5210729;28;20043;-81
2022/04/30 10:18:34;;;;;;;0.50;0.50;;;24.10;99.90;;;;;;5242957;28;20245;-80
2022/04/30 10:21:22;;;;;;;0.90;0.90;;;24.00;99.90;;;;;;5230771;28;20039;-79
2022/04/30 10:24:04;;;;;;;1.52;1.42;;;23.70;99.90;;;;;;5228390;28;20035;-81
2022/04/30 10:26:38;;;;;;;0.77;0.77;;;24.40;99.90;;;;;;5211743;28;20031;-76
2022/04/30 10:29:14;;;;;;;0.90;0.90;;;24.30;99.90;;;;;;5231743;28;20023;-81
2022/04/30 10:31:45;;;;;;;0.63;0.63;;;25.30;99.90;;;;;;5230612;28;20025;-77
2022/04/30 10:34:31;;;;;;;0.93;0.80;;;25.30;99.90;;;;;;5251910;28;20023;-76
2022/04/30 10:37:03;;;;;;;0.95;0.95;;;25.60;99.90;;;;;;5221645;28;20029;-79
2022/04/30 10:39:34;;;;;;;1.50;1.45;;;26.00;99.90;;;;;;5215086;28;20051;-79
2022/04/30 10:42:08;;;;;;;0.40;0.40;;;25.20;99.90;;;;;;5227642;28;20037;-81
2022/04/30 10:44:42;;;;;;;;;;;25.90;99.90;;;;;;5235248;28;20033;-78
2022/04/30 10:47:17;;;;;;;1.55;1.20;;;25.30;99.90;;;;;;5252222;28;19908;-78
2022/04/30 10:49:49;;;;;;;1.25;1.15;;;25.90;99.90;;;;;;5240944;28;20029;-82
2022/04/30 10:52:26;;;;;;;0.65;0.65;;;27.10;99.90;;;;;;5242920;28;20045;-79
2022/04/30 10:55:01;;;;;;;1.38;1.23;;;28.00;99.90;;;;;;5233865;28;20032;-80
2022/04/30 10:57:49;;;;;;;9.50;0.85;;;28.50;99.90;;;;;;5227975;28;20030;-82
2022/04/30 11:00:24;;;;;;;0.50;0.50;;;29.00;99.90;;;;;;5240286;28;20023;-78
2022/04/30 11:03:12;;;;;;;0.35;0.35;;;28.40;97.80;;;;;;5270928;28;20020;-81
2022/04/30 11:05:51;;;;;;;1.92;1.75;;;28.80;99.50;;;;;;5220399;28;20049;-81
2022/04/30 11:08:24;;;;;;;0.98;0.88;;;29.40;98.50;;;;;;5202187;28;20036;-83
2022/04/30 11:10:56;;;;;;;0.73;0.73;;;30.00;96.00;;;;;;5228241;28;20035;-80
2022/04/30 11:13:30;;;;;;;1.20;1.20;;;31.10;95.70;;;;;;5226201;28;20037;-80
2022/04/30 11:16:01;;;;;;;0.73;0.73;;;31.80;94.30;;;;;;5200818;28;20039;-80
2022/04/30 11:18:32;;;;;;;0.77;0.77;;;31.40;93.40;;;;;;5221450;28;20043;-77
2022/04/30 11:21:05;;;;;;;9.38;2.85;;;30.80;93.50;;;;;;5189247;28;20029;-79
2022/04/30 11:23:37;;;;;;;0.55;0.55;;;29.40;93.50;;;;;;5190295;28;20029;-78
2022/04/30 11:26:17;;;;;;;0.73;0.70;;;29.20;94.70;;;;;;5224293;28;20016;-79
2022/04/30 11:28:49;;;;;;;0.88;0.88;;;29.00;94.80;;;;;;5235371;28;20024;-80
2022/04/30 11:31:23;;;;;;;0.50;0.50;;;28.80;94.10;;;;;;5219653;28;20055;-79
2022/04/30 11:34:06;;;;;;;0.47;0.47;;;28.90;94.20;;;;;;5227459;28;20037;-79
2022/04/30 11:36:47;;;;;;;0.70;0.70;;;30.30;93.00;;;;;;5225228;28;20020;-79
2022/04/30 11:39:20;;;;;;;0.43;0.43;;;29.30;92.40;;;;;;5230373;28;20031;-79
2022/04/30 11:41:54;;;;;;;0.50;0.50;;;29.00;93.00;;;;;;5227269;28;20025;-79
2022/04/30 11:44:28;;;;;;;0.50;0.50;;;28.00;93.90;;;;;;5226288;28;20047;-79
2022/04/30 11:47:00;;;;;;;0.63;0.63;;;27.80;94.00;;;;;;5225211;28;20981;-80
2022/04/30 11:49:31;;;;;;;1.02;1.02;;;27.70;93.70;;;;;;5225441;28;20029;-80
2022/04/30 11:52:03;;;;;;;0.68;0.68;;;27.40;93.50;;;;;;5224074;28;20044;-79
2022/04/30 11:54:38;;;;;;;0.57;0.57;;;27.10;94.40;;;;;;5207438;28;20025;-80
2022/04/30 11:57:13;;;;;;;0.70;0.70;;;26.40;94.10;;;;;;5225049;28;20047;-79
2022/04/30 11:59:47;;;;;;;0.40;0.40;;;27.80;94.40;;;;;;5222962;28;20202;-79
2022/04/30 12:02:20;;;;;;;;;;;28.20;93.90;;;;;;5225915;28;20088;-80
2022/04/30 12:04:54;;;;;;;0.60;0.60;;;29.40;92.90;;;;;;5219962;28;20343;-80
2022/04/30 12:07:41;;;;;;;0.75;0.75;;;29.50;92.60;;;;;;5242206;28;20017;-81
2022/04/30 12:10:18;;;;;;;0.88;0.88;;;29.40;92.80;;;;;;5241945;28;20024;-79
2022/04/30 12:12:51;;;;;;;0.95;0.95;;;30.20;92.30;;;;;;5245192;28;20034;-79
2022/04/30 12:15:25;;;;;;;0.30;0.30;;;28.90;92.40;;;;;;5227189;28;20020;-78
2022/04/30 12:27:01;;;;;;;0.45;0.45;;;31.00;91.30;;;;;;5245196;28;20055;-79
2022/04/30 12:29:32;;;;;;;0.60;0.60;;;28.80;92.00;;;;;;5228269;28;20036;-79
2022/04/30 12:32:06;;;;;;;0.75;0.75;;;28.60;92.10;;;;;;5232652;28;20544;-80
2022/04/30 12:34:44;;;;;;;0.73;0.73;;;29.50;91.80;;;;;;5244176;28;20049;-79
2022/04/30 12:37:15;;;;;;;1.02;1.02;;;30.10;91.80;;;;;;5245941;28;20030;-78
2022/04/30 12:39:52;;;;;;;0.50;0.50;;;30.10;91.80;;;;;;5247367;28;20020;-78
2022/04/30 12:42:23;;;;;;;0.57;0.57;;;29.30;91.00;;;;;;5230426;28;20025;-80
2022/04/30 12:44:54;;;;;;;0.38;0.38;;;27.70;91.90;;;;;;5230238;28;20051;-79
2022/04/30 12:47:28;;;;;;;0.60;0.60;;;28.20;92.20;;;;;;5229009;28;20586;-77
2022/04/30 12:50:03;;;;;;;0.55;0.55;;;28.80;91.90;;;;;;5243813;28;20542;-79
2022/04/30 12:52:34;;;;;;;0.65;0.65;;;29.80;90.60;;;;;;5229136;28;20030;-82
2022/04/30 12:55:09;;;;;;;0.50;0.50;;;29.80;91.00;;;;;;5244144;28;20027;-78
2022/04/30 12:57:40;;;;;;;;;;;29.80;90.90;;;;;;5227049;28;20042;-78
2022/04/30 13:00:11;;;;;;;0.43;0.43;;;30.10;90.20;;;;;;5246133;28;20316;-81
2022/04/30 13:02:48;;;;;;;0.75;0.75;;;30.20;90.30;;;;;;5224437;28;20032;-81
2022/04/30 13:05:19;;;;;;;0.60;0.60;;;30.90;89.50;;;;;;5234277;28;20037;-78
2022/04/30 13:07:50;;;;;;;0.85;0.57;;;30.20;89.20;;;;;;5244406;28;20028;-80
2022/04/30 13:13:33;;;;;;;0.73;0.73;;;30.10;89.70;;;;;;5209438;28;20025;-80
2022/04/30 13:16:09;;;;;;;0.77;0.77;;;29.50;88.50;;;;;;5226957;28;20024;-78
2022/04/30 13:18:41;;;;;;;0.77;0.77;;;30.00;88.90;;;;;;5244681;28;20032;-80
2022/04/30 13:21:17;;;;;;;0.63;0.63;;;30.60;87.00;;;;;;5244377;28;20025;-80
2022/04/30 13:23:51;;;;;;;1.05;1.05;;;30.60;87.90;;;;;;5244589;28;20325;-80
2022/04/30 13:26:22;;;;;;;1.27;1.23;;;30.00;87.30;;;;;;5244627;28;20067;-80
2022/04/30 13:28:56;;;;;;;0.45;0.45;;;28.60;87.80;;;;;;5206878;28;20033;-79
2022/04/30 13:31:27;;;;;;;0.63;0.63;;;28.50;89.30;;;;;;5233372;28;20033;-80
2022/04/30 13:34:00;;;;;;;0.65;0.65;;;29.00;88.50;;;;;;5227234;28;20580;-80
2022/04/30 13:36:36;;;;;;;0.67;0.67;;;30.10;87.10;;;;;;5227270;28;20029;-80
2022/04/30 13:39:07;;;;;;;0.30;0.30;;;29.00;85.60;;;;;;5244744;28;20265;-80
2022/04/30 13:41:42;;;;;;;0.55;0.55;;;29.30;85.60;;;;;;5244219;28;20425;-79
2022/04/30 13:44:18;;;;;;;0.85;0.85;;;29.90;85.70;;;;;;5227175;28;20035;-80
2022/04/30 13:46:52;;;;;;;0.75;0.63;;;30.30;84.30;;;;;;5226650;28;20033;-79
2022/04/30 13:49:27;;;;;;;0.50;0.50;;;31.40;84.00;;;;;;5205621;28;20102;-77
2022/04/30 13:51:59;;;;;;;0.55;0.55;;;30.30;85.00;;;;;;5223715;28;20039;-78
2022/04/30 13:54:30;;;;;;;0.57;0.57;;;30.00;84.40;;;;;;5192620;28;20033;-81
2022/04/30 13:57:06;;;;;;;0.38;0.38;;;31.00;83.90;;;;;;5226221;28;20025;-78
2022/04/30 13:59:39;;;;;;;0.40;0.40;;;30.30;82.80;;;;;;5225405;28;20047;-78
2022/04/30 14:02:13;;;;;;;0.43;0.43;;;30.90;82.00;;;;;;5225112;28;20489;-80
2022/04/30 14:04:47;;;;;;;0.52;0.52;;;31.00;82.30;;;;;;5232982;28;20045;-78
2022/04/30 14:07:22;;;;;;;0.60;0.60;;;30.80;83.50;;;;;;5214926;28;20031;-78
2022/04/30 14:09:54;;;;;;;0.43;0.43;;;31.40;81.40;;;;;;5248133;28;20026;-79
2022/04/30 14:12:25;;;;;;;0.40;0.40;;;30.60;82.00;;;;;;5247698;28;20037;-79
2022/04/30 14:14:58;;;;;;;0.55;0.55;;;29.10;81.60;;;;;;5245766;28;20469;-80
2022/04/30 14:20:20;;;;;;;0.80;0.80;;;29.60;81.40;;;;;;5232595;28;20055;-78
2022/04/30 14:22:57;;;;;;;0.75;0.75;;;30.40;81.40;;;;;;5245596;28;20040;-78